Time;durP1;ratioP1;P1;durP2;ratioP2;P2;SDS_P1;SDS_P2;PMS_P1;PMS_P2;Temp;Humidity;BMP_temperature;BMP_pressure;BME280_temperature;BME280_humidity;BME280_pressure;Samples;Min_cycle;Max_cycle;Signal;HPM_P1;HPM_P2
2021/07/18 00:02:04;;;;;;;4.95;2.53;;;23.70;99.90;;;;;;5067911;28;20211;-76
2021/07/18 00:04:30;;;;;;;3.05;2.53;;;23.70;99.90;;;;;;5067983;28;20274;-76
2021/07/18 00:06:58;;;;;;;3.65;2.60;;;23.60;99.90;;;;;;5067714;28;20260;-76
2021/07/18 00:09:25;;;;;;;4.22;2.47;;;23.60;99.90;;;;;;5067805;28;20243;-76
2021/07/18 00:11:52;;;;;;;2.45;2.35;;;23.60;99.90;;;;;;5068024;28;20207;-76
2021/07/18 00:14:18;;;;;;;6.40;2.50;;;23.60;99.90;;;;;;5068117;28;20565;-76
2021/07/18 00:16:45;;;;;;;5.00;3.15;;;23.50;99.90;;;;;;5067731;28;20215;-74
2021/07/18 00:19:11;;;;;;;2.55;2.35;;;23.50;99.90;;;;;;5069504;28;20253;-74
2021/07/18 00:21:38;;;;;;;4.07;2.42;;;23.40;99.90;;;;;;5071273;28;20257;-74
2021/07/18 00:24:06;;;;;;;4.80;2.58;;;23.40;99.90;;;;;;5071287;28;20647;-74
2021/07/18 00:26:34;;;;;;;4.30;2.83;;;23.30;99.90;;;;;;5071231;28;20207;-74
2021/07/18 00:29:00;;;;;;;2.78;2.47;;;23.30;99.90;;;;;;5070611;28;20640;-74
2021/07/18 00:31:27;;;;;;;3.22;2.40;;;23.20;99.90;;;;;;5071170;28;20230;-74
2021/07/18 00:33:54;;;;;;;4.65;2.30;;;23.20;99.90;;;;;;5071228;28;20260;-74
2021/07/18 00:36:21;;;;;;;5.10;3.00;;;23.10;99.90;;;;;;5071042;28;20203;-74
2021/07/18 00:38:47;;;;;;;3.35;2.28;;;23.10;99.90;;;;;;5071023;28;20272;-75
2021/07/18 00:41:15;;;;;;;3.20;2.58;;;23.00;99.90;;;;;;5070981;28;20215;-74
2021/07/18 00:43:42;;;;;;;3.65;2.38;;;23.00;99.90;;;;;;5071052;28;20280;-74
2021/07/18 00:46:09;;;;;;;6.75;2.67;;;22.90;99.90;;;;;;5070509;28;21006;-74
2021/07/18 00:48:36;;;;;;;4.20;2.70;;;22.90;99.90;;;;;;5070632;28;20227;-76
2021/07/18 00:51:03;;;;;;;3.88;2.50;;;22.90;99.90;;;;;;5070818;28;20634;-75
2021/07/18 00:53:31;;;;;;;2.90;2.50;;;22.70;99.90;;;;;;5070714;28;20200;-75
2021/07/18 00:55:58;;;;;;;5.22;3.10;;;22.60;99.90;;;;;;5070536;28;20203;-75
2021/07/18 00:58:30;;;;;;;3.95;2.60;;;22.60;99.90;;;;;;5070969;28;20207;-76
2021/07/18 01:00:57;;;;;;;5.68;2.75;;;22.70;99.90;;;;;;5070706;28;20208;-75
2021/07/18 01:03:25;;;;;;;5.75;3.20;;;22.60;99.90;;;;;;5070902;28;20308;-75
2021/07/18 01:05:51;;;;;;;8.25;3.08;;;22.60;99.90;;;;;;5069663;28;20605;-74
2021/07/18 01:08:18;;;;;;;3.08;2.75;;;22.40;99.90;;;;;;5070370;28;20296;-74
2021/07/18 01:10:45;;;;;;;5.22;2.85;;;22.40;99.90;;;;;;5068424;28;20662;-74
2021/07/18 01:13:12;;;;;;;4.30;3.13;;;22.40;99.90;;;;;;5069870;28;20253;-74
2021/07/18 01:15:41;;;;;;;3.20;2.90;;;22.40;99.90;;;;;;5070338;28;20239;-74
2021/07/18 01:18:09;;;;;;;3.30;3.00;;;22.40;99.90;;;;;;5070396;28;20208;-74
2021/07/18 01:20:36;;;;;;;5.65;3.00;;;22.40;99.90;;;;;;5070331;28;20234;-74
2021/07/18 01:23:05;;;;;;;3.35;3.03;;;22.40;99.90;;;;;;5070083;28;20218;-74
2021/07/18 01:25:34;;;;;;;4.70;2.90;;;22.30;99.90;;;;;;5070273;28;20234;-74
2021/07/18 01:28:02;;;;;;;5.45;3.25;;;22.30;99.90;;;;;;5070076;28;20273;-74
2021/07/18 01:30:29;;;;;;;6.30;3.53;;;22.20;99.90;;;;;;5069653;28;20690;-74
2021/07/18 01:32:55;;;;;;;3.72;2.75;;;22.00;99.90;;;;;;5069961;28;20253;-74
2021/07/18 01:35:22;;;;;;;3.57;3.10;;;22.10;99.90;;;;;;5070221;28;20235;-75
2021/07/18 01:37:48;;;;;;;5.70;3.75;;;21.90;99.90;;;;;;5069874;28;20238;-74
2021/07/18 01:40:16;;;;;;;5.68;3.60;;;21.90;99.90;;;;;;5070256;28;20280;-75
2021/07/18 01:42:43;;;;;;;4.97;3.07;;;21.60;99.90;;;;;;5069827;28;20239;-75
2021/07/18 01:45:11;;;;;;;6.90;3.10;;;21.50;99.90;;;;;;5069896;28;20252;-75
2021/07/18 01:47:38;;;;;;;3.73;2.60;;;21.20;99.90;;;;;;5069670;28;20746;-75
2021/07/18 01:50:06;;;;;;;4.87;3.10;;;21.30;99.90;;;;;;5069821;28;20261;-76
2021/07/18 01:52:33;;;;;;;4.68;3.42;;;21.30;99.90;;;;;;5069887;28;20301;-75
2021/07/18 01:55:00;;;;;;;5.25;2.83;;;21.30;99.90;;;;;;5069297;28;20227;-75
2021/07/18 01:57:28;;;;;;;7.50;2.85;;;21.40;99.90;;;;;;5069870;28;20203;-75
2021/07/18 01:59:55;;;;;;;6.07;3.30;;;21.50;99.90;;;;;;5069591;28;20277;-75
2021/07/18 02:02:21;;;;;;;8.38;2.92;;;21.60;99.90;;;;;;5069508;28;20239;-75
2021/07/18 02:04:48;;;;;;;4.23;3.03;;;21.40;99.90;;;;;;5069411;28;20208;-76
2021/07/18 02:07:16;;;;;;;2.75;2.40;;;21.50;99.90;;;;;;5068660;28;20777;-74
2021/07/18 02:09:43;;;;;;;3.87;3.00;;;21.30;99.90;;;;;;5068888;28;20343;-73
2021/07/18 02:12:10;;;;;;;7.13;3.20;;;21.40;99.90;;;;;;5069230;28;20257;-74
2021/07/18 02:14:40;;;;;;;7.22;2.75;;;21.30;99.90;;;;;;5069168;28;20219;-73
2021/07/18 02:17:07;;;;;;;4.53;2.80;;;21.20;99.90;;;;;;5068973;28;20207;-75
2021/07/18 02:19:34;;;;;;;5.83;2.87;;;21.30;99.90;;;;;;5069255;28;20203;-76
2021/07/18 02:22:01;;;;;;;3.22;2.92;;;21.40;99.90;;;;;;5069057;28;20212;-75
2021/07/18 02:24:27;;;;;;;3.37;2.43;;;21.50;99.90;;;;;;5069087;28;20715;-76
2021/07/18 02:26:54;;;;;;;3.27;2.47;;;21.50;99.90;;;;;;5068908;28;20238;-76
2021/07/18 02:29:22;;;;;;;4.30;2.38;;;21.40;99.90;;;;;;5068631;28;20263;-76
2021/07/18 02:31:50;;;;;;;5.38;2.50;;;21.50;99.90;;;;;;5069026;28;20302;-74
2021/07/18 02:34:16;;;;;;;2.58;2.22;;;21.50;99.90;;;;;;5068221;28;20206;-73
2021/07/18 02:36:43;;;;;;;6.43;2.70;;;21.60;99.90;;;;;;5068374;28;20211;-74
2021/07/18 02:39:10;;;;;;;4.55;3.03;;;21.70;99.90;;;;;;5068889;28;20207;-75
2021/07/18 02:41:36;;;;;;;5.68;2.40;;;21.70;99.90;;;;;;5068354;28;20606;-75
2021/07/18 02:44:03;;;;;;;4.57;2.78;;;21.60;99.90;;;;;;5068445;28;20665;-75
2021/07/18 02:46:30;;;;;;;2.53;2.33;;;21.60;99.90;;;;;;5068881;28;20285;-75
2021/07/18 02:48:58;;;;;;;4.65;2.55;;;21.50;99.90;;;;;;5068610;28;20231;-74
2021/07/18 02:51:25;;;;;;;6.85;2.80;;;21.50;99.90;;;;;;5068898;28;20253;-75
2021/07/18 02:53:53;;;;;;;4.82;2.50;;;21.50;99.90;;;;;;5068693;28;20281;-74
2021/07/18 02:56:20;;;;;;;2.85;2.33;;;21.40;99.90;;;;;;5068140;28;20249;-74
2021/07/18 02:58:46;;;;;;;2.40;2.00;;;21.40;99.90;;;;;;5068639;28;20235;-74
2021/07/18 03:01:13;;;;;;;2.53;2.30;;;21.50;99.90;;;;;;5068427;28;20781;-74
2021/07/18 03:03:40;;;;;;;5.22;2.47;;;21.30;99.90;;;;;;5068639;28;20261;-74
2021/07/18 03:06:08;;;;;;;3.20;2.20;;;21.40;99.90;;;;;;5068620;28;20625;-74
2021/07/18 03:08:34;;;;;;;7.97;2.67;;;21.30;99.90;;;;;;5068622;28;20235;-77
2021/07/18 03:11:01;;;;;;;4.50;2.40;;;21.30;99.90;;;;;;5068798;28;20211;-77
2021/07/18 03:13:28;;;;;;;4.10;2.33;;;21.40;99.90;;;;;;5068867;28;20207;-77
2021/07/18 03:15:54;;;;;;;3.60;2.30;;;21.40;99.90;;;;;;5068262;28;20673;-76
2021/07/18 03:18:21;;;;;;;4.13;2.57;;;21.40;99.90;;;;;;5068368;28;20231;-73
2021/07/18 03:20:48;;;;;;;3.10;1.98;;;21.20;99.90;;;;;;5068360;28;20239;-73
2021/07/18 03:23:16;;;;;;;6.25;2.30;;;21.20;99.90;;;;;;5068153;28;20207;-74
2021/07/18 03:25:42;;;;;;;3.47;2.40;;;21.20;99.90;;;;;;5068441;28;20650;-74
2021/07/18 03:28:09;;;;;;;8.20;2.60;;;21.10;99.90;;;;;;5068187;28;20227;-73
2021/07/18 03:30:35;;;;;;;5.40;2.90;;;20.90;99.90;;;;;;5068062;28;20643;-74
2021/07/18 03:33:02;;;;;;;5.17;1.90;;;21.00;99.90;;;;;;5067905;28;20235;-74
2021/07/18 03:35:29;;;;;;;4.30;2.60;;;21.10;99.90;;;;;;5068268;28;20200;-74
2021/07/18 03:37:55;;;;;;;4.17;2.30;;;21.10;99.90;;;;;;5067987;28;20211;-74
2021/07/18 03:40:24;;;;;;;4.00;3.47;;;20.80;99.90;;;;;;5068044;28;20207;-74
2021/07/18 03:42:51;;;;;;;5.33;2.50;;;20.80;99.90;;;;;;5067964;28;20203;-74
2021/07/18 03:45:18;;;;;;;2.60;2.27;;;20.70;99.90;;;;;;5068138;28;20305;-75
2021/07/18 03:47:45;;;;;;;5.00;3.00;;;20.40;99.90;;;;;;5068064;28;20236;-74
2021/07/18 03:50:14;;;;;;;3.87;2.90;;;20.30;99.90;;;;;;5068008;28;20215;-74
2021/07/18 03:52:40;;;;;;;6.17;3.40;;;20.30;99.90;;;;;;5068377;28;20290;-74
2021/07/18 03:55:08;;;;;;;3.67;2.73;;;20.10;99.90;;;;;;5070849;28;20231;-74
2021/07/18 03:57:36;;;;;;;4.43;2.90;;;20.20;99.90;;;;;;5071870;28;20208;-74
2021/07/18 04:00:04;;;;;;;5.87;3.50;;;20.10;99.90;;;;;;5071869;28;20208;-74
2021/07/18 04:02:30;;;;;;;3.53;3.30;;;20.10;99.90;;;;;;5071631;28;20260;-74
2021/07/18 04:04:57;;;;;;;4.47;2.87;;;19.80;99.90;;;;;;5071692;28;20252;-74
2021/07/18 04:07:23;;;;;;;3.80;2.70;;;19.80;99.90;;;;;;5071420;28;20211;-74
2021/07/18 04:09:50;;;;;;;4.90;3.13;;;19.90;99.90;;;;;;5071095;28;20278;-74
2021/07/18 04:12:16;;;;;;;5.77;2.70;;;19.80;99.90;;;;;;5071756;28;20613;-75
2021/07/18 04:14:44;;;;;;;3.33;3.03;;;19.90;99.90;;;;;;5071684;28;20269;-75
2021/07/18 04:17:11;;;;;;;5.63;3.30;;;20.00;99.90;;;;;;5071468;28;20264;-75
2021/07/18 04:19:38;;;;;;;2.97;2.67;;;19.90;99.90;;;;;;5071371;28;20241;-75
2021/07/18 04:22:05;;;;;;;3.90;2.60;;;19.90;99.90;;;;;;5071375;28;20298;-75
2021/07/18 04:24:31;;;;;;;2.80;2.40;;;20.00;99.90;;;;;;5071571;28;20211;-75
2021/07/18 04:26:58;;;;;;;4.03;2.53;;;20.20;99.90;;;;;;5071032;28;20546;-75
2021/07/18 04:29:24;;;;;;;2.67;2.47;;;20.10;99.90;;;;;;5071284;28;20377;-75
2021/07/18 04:31:53;;;;;;;6.83;2.70;;;20.20;99.90;;;;;;5071055;28;20719;-74
2021/07/18 04:34:19;;;;;;;2.67;2.40;;;20.00;99.90;;;;;;5071354;28;20253;-74
2021/07/18 04:36:46;;;;;;;3.60;2.40;;;19.90;99.90;;;;;;5071216;28;20803;-74
2021/07/18 04:39:13;;;;;;;2.63;2.10;;;19.70;99.90;;;;;;5071478;28;20248;-74
2021/07/18 04:41:40;;;;;;;5.30;3.27;;;19.80;99.90;;;;;;5071362;28;20253;-75
2021/07/18 04:44:07;;;;;;;3.80;3.43;;;19.90;99.90;;;;;;5071083;28;20204;-75
2021/07/18 04:46:34;;;;;;;4.37;3.33;;;20.00;99.90;;;;;;5070941;28;20260;-74
2021/07/18 04:49:02;;;;;;;3.83;3.47;;;19.90;99.90;;;;;;5070676;28;20239;-74
2021/07/18 04:51:28;;;;;;;5.60;3.13;;;20.00;99.90;;;;;;5070833;28;20203;-73
2021/07/18 04:53:55;;;;;;;3.93;2.77;;;20.20;99.90;;;;;;5070991;28;20259;-73
2021/07/18 04:56:22;;;;;;;4.30;2.60;;;20.20;99.90;;;;;;5071009;28;20341;-74
2021/07/18 04:58:48;;;;;;;3.73;2.40;;;20.20;99.90;;;;;;5070707;28;20569;-75
2021/07/18 05:01:15;;;;;;;3.53;2.67;;;20.40;99.90;;;;;;5070534;28;20235;-74
2021/07/18 05:03:42;;;;;;;5.90;3.10;;;20.30;99.90;;;;;;5070435;28;20208;-74
2021/07/18 05:06:10;;;;;;;3.83;2.53;;;20.30;99.90;;;;;;5070117;28;20409;-74
2021/07/18 05:08:37;;;;;;;2.87;2.40;;;20.30;99.90;;;;;;5070279;28;20322;-74
2021/07/18 05:11:04;;;;;;;2.80;2.20;;;20.30;99.90;;;;;;5070411;28;20746;-75
2021/07/18 05:13:31;;;;;;;5.50;2.90;;;20.50;99.90;;;;;;5071016;28;20212;-75
2021/07/18 05:15:58;;;;;;;4.23;2.30;;;20.60;99.90;;;;;;5070694;28;21012;-75
2021/07/18 05:18:25;;;;;;;3.37;2.63;;;20.60;99.90;;;;;;5070620;28;20211;-75
2021/07/18 05:20:52;;;;;;;2.97;2.40;;;20.70;99.90;;;;;;5070532;28;20208;-75
2021/07/18 05:23:20;;;;;;;2.97;2.20;;;20.90;99.90;;;;;;5070590;28;20262;-76
2021/07/18 05:25:46;;;;;;;3.40;2.17;;;20.90;99.90;;;;;;5070370;28;20685;-75
2021/07/18 05:28:13;;;;;;;2.47;2.27;;;21.10;99.90;;;;;;5070120;28;20204;-76
2021/07/18 05:30:41;;;;;;;3.13;2.40;;;21.10;99.90;;;;;;5070630;28;20203;-76
2021/07/18 05:33:08;;;;;;;4.20;2.30;;;21.20;99.90;;;;;;5070508;28;20208;-75
2021/07/18 05:35:35;;;;;;;3.90;2.33;;;21.20;99.90;;;;;;5070258;28;20782;-76
2021/07/18 05:38:01;;;;;;;2.47;2.15;;;21.30;99.90;;;;;;5070344;28;20544;-76
2021/07/18 05:40:29;;;;;;;3.83;2.47;;;21.40;99.90;;;;;;5070357;28;20257;-76
2021/07/18 05:42:56;;;;;;;2.37;2.17;;;21.30;99.90;;;;;;5070053;28;20256;-76
2021/07/18 05:45:23;;;;;;;3.80;2.27;;;21.30;99.90;;;;;;5069370;28;20735;-76
2021/07/18 05:47:52;;;;;;;2.53;2.20;;;21.30;99.90;;;;;;5069619;28;20692;-76
2021/07/18 05:50:19;;;;;;;3.88;2.83;;;21.20;99.90;;;;;;5069575;28;20259;-73
2021/07/18 05:52:46;;;;;;;3.07;2.43;;;21.10;99.90;;;;;;5069743;28;20234;-74
2021/07/18 05:55:13;;;;;;;3.03;2.43;;;21.10;99.90;;;;;;5069772;28;20256;-74
2021/07/18 05:57:41;;;;;;;2.70;2.50;;;21.00;99.90;;;;;;5069722;28;20207;-73
2021/07/18 06:00:10;;;;;;;4.23;2.40;;;20.80;99.90;;;;;;5069662;28;20253;-73
2021/07/18 06:02:36;;;;;;;5.77;2.80;;;20.90;99.90;;;;;;5069537;28;20269;-74
2021/07/18 06:05:03;;;;;;;4.43;2.43;;;20.90;99.90;;;;;;5069537;28;20257;-73
2021/07/18 06:07:30;;;;;;;5.53;2.37;;;21.00;99.90;;;;;;5069709;28;20447;-73
2021/07/18 06:09:57;;;;;;;5.03;2.20;;;21.10;99.90;;;;;;5069117;28;20246;-73
2021/07/18 06:12:23;;;;;;;3.27;2.27;;;21.20;99.90;;;;;;5068883;28;20632;-75
2021/07/18 06:14:51;;;;;;;3.73;1.90;;;21.10;99.90;;;;;;5069596;28;20203;-75
2021/07/18 06:17:20;;;;;;;2.60;1.93;;;21.10;99.90;;;;;;5068510;28;20243;-74
2021/07/18 06:19:47;;;;;;;3.50;2.00;;;21.30;99.90;;;;;;5069323;28;20207;-74
2021/07/18 06:22:13;;;;;;;2.30;2.10;;;21.30;99.90;;;;;;5069251;28;20211;-74
2021/07/18 06:24:40;;;;;;;3.03;1.70;;;21.20;99.90;;;;;;5069301;28;20203;-74
2021/07/18 06:27:08;;;;;;;3.27;2.03;;;21.20;99.90;;;;;;5069267;28;20203;-74
2021/07/18 06:29:34;;;;;;;4.57;2.20;;;21.30;99.90;;;;;;5069057;28;20238;-74
2021/07/18 06:32:04;;;;;;;2.10;1.73;;;21.20;99.90;;;;;;5069264;28;20218;-74
2021/07/18 06:34:31;;;;;;;5.70;2.00;;;21.40;99.90;;;;;;5069333;28;20246;-75
2021/07/18 06:36:57;;;;;;;3.40;2.40;;;21.30;99.90;;;;;;5069099;28;20253;-73
2021/07/18 06:39:24;;;;;;;3.90;2.23;;;21.20;99.90;;;;;;5068581;28;20742;-73
2021/07/18 06:41:50;;;;;;;1.87;1.63;;;21.10;99.90;;;;;;5068713;28;20211;-73
2021/07/18 06:44:17;;;;;;;4.43;2.00;;;21.10;99.90;;;;;;5068746;28;20203;-76
2021/07/18 06:46:44;;;;;;;2.70;2.23;;;21.10;99.90;;;;;;5069165;28;20313;-76
2021/07/18 06:49:12;;;;;;;2.30;2.10;;;21.20;99.90;;;;;;5068930;28;20234;-76
2021/07/18 06:51:38;;;;;;;2.90;2.03;;;21.30;99.90;;;;;;5068774;28;20207;-76
2021/07/18 06:54:05;;;;;;;1.85;1.75;;;21.40;99.90;;;;;;5068807;28;20277;-76
2021/07/18 06:56:32;;;;;;;3.03;1.90;;;21.50;99.90;;;;;;5068586;28;20704;-76
2021/07/18 06:58:59;;;;;;;3.15;1.67;;;21.60;99.90;;;;;;5068285;28;20207;-74
2021/07/18 07:01:26;;;;;;;5.22;2.00;;;21.70;99.90;;;;;;5068121;28;20211;-74
2021/07/18 07:03:52;;;;;;;2.47;1.87;;;21.70;99.90;;;;;;5068473;28;20207;-73
2021/07/18 07:06:20;;;;;;;3.55;1.80;;;21.80;99.90;;;;;;5068527;28;20731;-74
2021/07/18 07:08:47;;;;;;;4.50;2.08;;;21.90;99.90;;;;;;5068028;28;20285;-73
2021/07/18 07:11:14;;;;;;;2.60;1.70;;;21.90;99.90;;;;;;5068217;28;20281;-73
2021/07/18 07:13:40;;;;;;;4.70;1.80;;;21.70;99.90;;;;;;5068515;28;20256;-73
2021/07/18 07:16:07;;;;;;;1.80;1.70;;;21.70;99.90;;;;;;5068164;28;20204;-73
2021/07/18 07:18:34;;;;;;;3.27;1.80;;;21.70;99.90;;;;;;5068241;28;20203;-73
2021/07/18 07:21:00;;;;;;;2.05;1.90;;;21.80;99.90;;;;;;5068082;28;20685;-73
2021/07/18 07:23:28;;;;;;;2.42;2.00;;;21.90;99.90;;;;;;5068400;28;20207;-75
2021/07/18 07:25:55;;;;;;;2.10;1.80;;;21.90;99.90;;;;;;5068144;28;20548;-74
2021/07/18 07:28:22;;;;;;;4.20;2.35;;;21.90;99.90;;;;;;5070258;28;20219;-74
2021/07/18 07:30:48;;;;;;;1.98;1.85;;;21.90;99.90;;;;;;5072366;28;20238;-74
2021/07/18 07:33:15;;;;;;;7.20;2.40;;;22.00;99.90;;;;;;5072255;28;20211;-75
2021/07/18 07:35:42;;;;;;;4.28;2.03;;;22.10;99.90;;;;;;5072078;28;20732;-75
2021/07/18 07:38:09;;;;;;;4.50;2.20;;;22.20;99.90;;;;;;5071523;28;20669;-73
2021/07/18 07:40:37;;;;;;;2.17;2.08;;;22.20;99.90;;;;;;5072239;28;20280;-73
2021/07/18 07:43:04;;;;;;;5.85;1.80;;;22.30;99.90;;;;;;5071946;28;20200;-73
2021/07/18 07:45:31;;;;;;;4.35;1.83;;;22.30;99.90;;;;;;5072093;28;20580;-73
2021/07/18 07:47:58;;;;;;;1.88;1.65;;;22.40;99.90;;;;;;5071982;28;20215;-74
2021/07/18 07:50:24;;;;;;;3.00;1.90;;;22.20;99.90;;;;;;5071730;28;20223;-74
2021/07/18 07:52:51;;;;;;;2.05;1.85;;;22.30;99.90;;;;;;5072050;28;20658;-74
2021/07/18 07:55:18;;;;;;;2.10;1.90;;;22.40;99.90;;;;;;5071704;28;20211;-74
2021/07/18 07:57:46;;;;;;;1.98;1.85;;;22.50;99.90;;;;;;5071927;28;20247;-74
2021/07/18 08:00:15;;;;;;;1.55;1.45;;;22.50;99.90;;;;;;5071584;28;20743;-75
2021/07/18 08:02:42;;;;;;;1.90;1.80;;;22.70;99.90;;;;;;5071943;28;20207;-76
2021/07/18 08:05:10;;;;;;;2.22;2.00;;;22.70;99.90;;;;;;5071791;28;20246;-75
2021/07/18 08:07:37;;;;;;;2.40;1.77;;;22.70;99.90;;;;;;5071605;28;20616;-75
2021/07/18 08:10:07;;;;;;;2.97;2.10;;;22.80;99.90;;;;;;5070795;28;20250;-74
2021/07/18 08:12:34;;;;;;;1.90;1.67;;;22.80;99.90;;;;;;5070313;28;20657;-74
2021/07/18 08:15:02;;;;;;;2.33;1.98;;;22.90;99.90;;;;;;5071052;28;20208;-74
2021/07/18 08:17:28;;;;;;;2.63;2.00;;;23.00;99.90;;;;;;5070942;28;20253;-73
2021/07/18 08:19:55;;;;;;;1.95;1.85;;;23.00;99.90;;;;;;5062927;28;20635;-76
2021/07/18 08:22:22;;;;;;;3.17;2.10;;;23.10;99.90;;;;;;5071487;28;20261;-74
2021/07/18 08:24:49;;;;;;;2.92;1.70;;;23.20;99.90;;;;;;5070803;28;20269;-76
2021/07/18 08:27:16;;;;;;;2.72;1.58;;;23.30;99.90;;;;;;5071001;28;20204;-76
2021/07/18 08:29:43;;;;;;;3.88;1.77;;;23.30;99.90;;;;;;5071287;28;20270;-80
2021/07/18 08:32:11;;;;;;;3.38;1.58;;;23.40;99.90;;;;;;5071316;28;20211;-82
2021/07/18 08:34:37;;;;;;;4.63;1.85;;;23.40;99.90;;;;;;5058577;28;20200;-80
2021/07/18 08:37:04;;;;;;;3.17;1.50;;;23.50;99.90;;;;;;5048986;28;20270;-80
2021/07/18 08:39:31;;;;;;;2.97;1.95;;;23.50;99.90;;;;;;5048382;28;20243;-79
2021/07/18 08:41:58;;;;;;;2.08;1.80;;;23.60;99.90;;;;;;5049250;28;20285;-80
2021/07/18 08:44:24;;;;;;;3.85;1.63;;;23.70;99.90;;;;;;5048779;28;20266;-80
2021/07/18 08:46:51;;;;;;;3.33;1.77;;;23.70;99.90;;;;;;5048528;28;20642;-81
2021/07/18 08:49:19;;;;;;;1.60;1.50;;;23.80;99.90;;;;;;5048382;28;20242;-81
2021/07/18 08:51:46;;;;;;;3.08;1.67;;;23.80;99.90;;;;;;5048850;28;20208;-80
2021/07/18 08:54:13;;;;;;;2.20;1.70;;;23.90;99.90;;;;;;5064984;28;20262;-81
2021/07/18 08:56:40;;;;;;;1.63;1.38;;;23.90;99.90;;;;;;5069552;28;20207;-81
2021/07/18 08:59:07;;;;;;;18.48;2.75;;;24.00;99.90;;;;;;5069373;28;20673;-81
2021/07/18 09:01:35;;;;;;;5.90;2.50;;;24.10;99.90;;;;;;5068601;28;20666;-79
2021/07/18 09:04:02;;;;;;;4.13;1.60;;;24.10;99.90;;;;;;5068448;28;20211;-78
2021/07/18 09:06:41;;;;;;;1.65;1.52;;;24.20;99.90;;;;;;5068469;28;20238;-78
2021/07/18 09:09:09;;;;;;;3.58;1.75;;;24.20;99.90;;;;;;5068110;28;20241;-80
2021/07/18 09:11:36;;;;;;;1.73;1.63;;;24.30;99.90;;;;;;5067773;28;20736;-80
2021/07/18 09:14:04;;;;;;;4.70;1.80;;;24.40;99.90;;;;;;5068312;28;20229;-79
2021/07/18 09:16:33;;;;;;;2.55;1.55;;;24.40;99.90;;;;;;5068432;28;20959;-80
2021/07/18 09:19:16;;;;;;;2.10;1.60;;;24.40;99.90;;;;;;5068035;28;20252;-80
2021/07/18 09:21:50;;;;;;;4.72;1.90;;;24.50;99.90;;;;;;5067916;28;20521;-79
2021/07/18 09:24:24;;;;;;;3.70;1.98;;;24.60;99.90;;;;;;5068188;28;20212;-79
2021/07/18 09:27:10;;;;;;;2.00;1.80;;;24.60;99.90;;;;;;5068150;28;20309;-79
2021/07/18 09:29:38;;;;;;;2.67;1.80;;;24.70;99.90;;;;;;5067698;28;20268;-80
2021/07/18 09:32:07;;;;;;;2.40;1.50;;;24.80;99.90;;;;;;5067890;28;20204;-80
2021/07/18 09:34:35;;;;;;;1.98;1.50;;;24.80;99.90;;;;;;5067737;28;20643;-81
2021/07/18 09:37:12;;;;;;;2.63;1.83;;;24.80;99.90;;;;;;5068050;28;20265;-81
2021/07/18 09:39:40;;;;;;;3.78;1.92;;;24.90;99.90;;;;;;5068638;28;20226;-80
2021/07/18 09:42:07;;;;;;;5.38;1.83;;;25.00;99.90;;;;;;5068368;28;20253;-81
2021/07/18 09:44:45;;;;;;;1.80;1.70;;;25.00;99.90;;;;;;5067942;28;20292;-80
2021/07/18 09:47:13;;;;;;;2.70;1.63;;;25.00;99.90;;;;;;5065677;28;20239;-79
2021/07/18 09:49:40;;;;;;;2.22;1.65;;;25.10;99.90;;;;;;5067862;28;20235;-79
2021/07/18 09:52:21;;;;;;;3.08;1.75;;;25.10;99.90;;;;;;5066923;28;20203;-80
2021/07/18 09:54:49;;;;;;;2.72;1.83;;;25.20;99.90;;;;;;5060784;28;20200;-77
2021/07/18 09:57:30;;;;;;;1.83;1.60;;;25.20;99.90;;;;;;5059070;28;20255;-75
2021/07/18 09:59:57;;;;;;;2.17;1.83;;;25.30;99.90;;;;;;5068452;28;20257;-75
2021/07/18 10:02:25;;;;;;;3.20;1.70;;;25.30;99.90;;;;;;5069168;28;20217;-76
2021/07/18 10:04:53;;;;;;;2.65;1.60;;;25.40;99.90;;;;;;5069351;28;20207;-76
2021/07/18 10:07:23;;;;;;;2.03;1.77;;;25.40;99.90;;;;;;5068984;28;20277;-75
2021/07/18 10:09:51;;;;;;;2.20;1.63;;;25.40;99.90;;;;;;5068922;28;20243;-76
2021/07/18 10:12:18;;;;;;;1.73;1.63;;;25.60;99.90;;;;;;5069129;28;20215;-76
2021/07/18 10:14:46;;;;;;;2.25;1.88;;;25.60;99.90;;;;;;5069138;28;20261;-76
2021/07/18 10:17:12;;;;;;;3.13;1.50;;;25.60;99.90;;;;;;5069318;28;20285;-76
2021/07/18 10:19:39;;;;;;;3.10;1.88;;;25.70;99.90;;;;;;5069136;28;20211;-76
2021/07/18 10:22:07;;;;;;;2.17;1.95;;;25.70;99.90;;;;;;5069048;28;20208;-75
2021/07/18 10:24:35;;;;;;;2.53;1.60;;;25.80;99.90;;;;;;5069012;28;21061;-75
2021/07/18 10:27:04;;;;;;;4.72;1.65;;;25.70;99.90;;;;;;5068959;28;20207;-76
2021/07/18 10:29:32;;;;;;;1.67;1.58;;;25.70;99.90;;;;;;5068714;28;20281;-75
2021/07/18 10:32:02;;;;;;;3.10;1.35;;;25.80;99.90;;;;;;5068657;28;20736;-76
2021/07/18 10:34:34;;;;;;;2.47;1.52;;;25.90;99.90;;;;;;5068357;28;20610;-76
2021/07/18 10:37:02;;;;;;;1.40;1.30;;;26.00;99.90;;;;;;5066502;28;20574;-75
2021/07/18 10:39:31;;;;;;;1.67;1.48;;;26.00;99.90;;;;;;5068545;28;20203;-76
2021/07/18 10:42:02;;;;;;;2.58;1.50;;;26.10;99.90;;;;;;5068306;28;20203;-76
2021/07/18 10:44:40;;;;;;;1.55;1.30;;;26.10;99.90;;;;;;5075701;28;20209;-76
2021/07/18 10:47:07;;;;;;;4.45;1.58;;;26.10;99.90;;;;;;5075109;28;20210;-75
2021/07/18 10:49:57;;;;;;;2.97;1.60;;;26.20;99.90;;;;;;5067957;28;20288;-76
2021/07/18 10:52:29;;;;;;;1.95;1.55;;;26.30;99.90;;;;;;5067821;28;20208;-76
2021/07/18 10:54:56;;;;;;;3.03;1.40;;;26.40;99.90;;;;;;5068254;28;20364;-76
2021/07/18 10:57:27;;;;;;;1.55;1.45;;;26.40;99.90;;;;;;5068219;28;20257;-76
2021/07/18 10:59:54;;;;;;;1.63;1.52;;;26.40;99.90;;;;;;5068026;28;20665;-75
2021/07/18 11:02:31;;;;;;;3.08;1.70;;;26.50;99.90;;;;;;5066920;28;20662;-76
2021/07/18 11:04:58;;;;;;;1.60;1.50;;;26.60;99.90;;;;;;5068191;28;20203;-76
2021/07/18 11:07:27;;;;;;;4.22;1.65;;;26.60;99.90;;;;;;5052674;28;20212;-76
2021/07/18 11:09:56;;;;;;;3.00;1.30;;;26.70;99.90;;;;;;5064387;28;20799;-76
2021/07/18 11:12:25;;;;;;;2.33;1.60;;;26.80;99.90;;;;;;5054909;28;20231;-76
2021/07/18 11:14:52;;;;;;;1.73;1.60;;;26.90;99.90;;;;;;5079264;28;20210;-76
2021/07/18 11:17:26;;;;;;;1.50;1.50;;;27.00;99.90;;;;;;5073342;28;20550;-76
2021/07/18 11:20:04;;;;;;;2.78;1.30;;;27.10;99.90;;;;;;5068075;28;20207;-74
2021/07/18 11:23:00;;;;;;;1.50;1.40;;;27.20;99.90;;;;;;5067483;28;20724;-74
2021/07/18 11:25:47;;;;;;;3.10;1.77;;;27.30;99.90;;;;;;5067786;28;20203;-74
2021/07/18 11:28:51;;;;;;;2.42;1.65;;;27.40;99.90;;;;;;5053474;28;20307;-74
2021/07/18 11:31:20;;;;;;;1.42;1.33;;;27.40;99.90;;;;;;5067588;28;20219;-74
2021/07/18 11:34:09;;;;;;;2.90;1.60;;;27.30;99.90;;;;;;5067416;28;20683;-74
2021/07/18 11:37:01;;;;;;;1.45;1.35;;;27.20;99.90;;;;;;5067537;28;20658;-74
2021/07/18 11:39:28;;;;;;;1.92;1.50;;;27.20;99.90;;;;;;5067534;28;20608;-76
2021/07/18 11:41:56;;;;;;;1.60;1.50;;;27.20;99.90;;;;;;5067694;28;20222;-76
2021/07/18 11:44:27;;;;;;;2.63;1.50;;;27.30;99.90;;;;;;5067924;28;20211;-76
2021/07/18 11:46:56;;;;;;;5.38;1.80;;;27.30;99.90;;;;;;5068086;28;20260;-76
2021/07/18 11:49:32;;;;;;;3.72;1.50;;;27.30;99.90;;;;;;5067699;28;20218;-76
2021/07/18 11:51:58;;;;;;;2.92;1.75;;;27.30;99.90;;;;;;5051269;28;20223;-76
2021/07/18 11:54:26;;;;;;;5.38;1.48;;;27.30;99.90;;;;;;5066652;28;20222;-76
2021/07/18 11:56:53;;;;;;;3.58;1.75;;;27.30;99.90;;;;;;5067878;28;20214;-76
2021/07/18 11:59:21;;;;;;;3.13;1.80;;;27.20;99.90;;;;;;5067526;28;20214;-76
2021/07/18 12:01:51;;;;;;;4.68;2.03;;;27.00;99.90;;;;;;5067555;28;20731;-76
2021/07/18 12:04:22;;;;;;;3.42;1.42;;;26.90;99.90;;;;;;5073625;28;20241;-76
2021/07/18 12:06:50;;;;;;;7.68;1.42;;;26.80;99.90;;;;;;5077232;28;20191;-76
2021/07/18 12:09:18;;;;;;;1.77;1.50;;;26.80;99.90;;;;;;5067193;28;20713;-76
2021/07/18 12:11:48;;;;;;;3.33;1.40;;;26.80;99.90;;;;;;5066944;28;20269;-76
2021/07/18 12:14:15;;;;;;;2.20;1.40;;;26.80;99.90;;;;;;5069359;28;20200;-75
2021/07/18 12:16:44;;;;;;;3.25;1.67;;;26.90;99.90;;;;;;5070840;28;20258;-75
2021/07/18 12:19:13;;;;;;;2.05;1.40;;;26.90;99.90;;;;;;5068431;28;20203;-76
2021/07/18 12:21:42;;;;;;;1.60;1.50;;;26.90;99.90;;;;;;5070733;28;20669;-75
2021/07/18 12:24:14;;;;;;;2.55;1.60;;;27.00;99.90;;;;;;5069162;28;20208;-76
2021/07/18 12:26:42;;;;;;;2.25;1.70;;;27.10;99.90;;;;;;5070008;28;20950;-75
2021/07/18 12:29:11;;;;;;;6.80;1.65;;;27.10;99.90;;;;;;5071140;28;20215;-75
2021/07/18 12:31:39;;;;;;;1.40;1.27;;;27.10;99.90;;;;;;5070809;28;20642;-75
2021/07/18 12:34:07;;;;;;;3.13;1.80;;;27.10;99.90;;;;;;5070651;28;20208;-75
2021/07/18 12:36:51;;;;;;;2.28;1.38;;;27.10;99.90;;;;;;5069951;28;20280;-75
2021/07/18 12:39:19;;;;;;;2.03;1.35;;;27.20;99.90;;;;;;5054322;28;20333;-75
2021/07/18 12:41:46;;;;;;;1.45;1.23;;;27.20;99.90;;;;;;5069726;28;20235;-75
2021/07/18 12:44:14;;;;;;;2.22;2.00;;;27.10;99.70;;;;;;5069591;28;20269;-75
2021/07/18 12:46:41;;;;;;;6.45;1.90;;;27.00;99.60;;;;;;5069636;28;20559;-76
2021/07/18 12:49:09;;;;;;;8.35;1.67;;;27.00;99.90;;;;;;5069644;28;20731;-75
2021/07/18 12:51:38;;;;;;;1.63;1.30;;;27.10;99.90;;;;;;5069181;28;20238;-74
2021/07/18 12:54:05;;;;;;;1.50;1.35;;;27.10;99.90;;;;;;5068492;28;20219;-75